Wetterdaten April 2003

Datum Tiefsttemp. Hchsttemp. Luftdruck Regen Wind
01.04.2003 1,8 C 16,3 C 1014 hpa 4,8 mm 18,6 km/h
02.04.2003 0,1 C 6,4 C 1009 hpa 11,8 mm 18,7 km/h
03.04.2003 - 0,8 C 6,6 C 1022 hpa 2,0 mm 12,6 km/h
04.04.2003 - 2,9 C 11,6 C 1028 hpa 0,0 mm 15,5 km/h
05.04.2003 2,2 C 11,1 C 1027 hpa 0,0 mm 24,8 km/h
06.04.2003 -0,5 C 10,1 C 1026 hpa 0,0 mm 13,3 km/h
07.04.2003 - 6,9 C 7,0 C 1025 hpa 0,0 mm 20,2 km/h
08.04.2003 - 6,9 C 9,1 C 1022 hpa 0,0 mm 15,8 km/h
09.04.2003 -7,8 C 4,7 C 1015 hpa 0,0 mm 13,4 km/h
10.04.2003 -4,4 C 4,5 C 1007 hpa 1,2 mm 7,9 km/h
11.04.2003 -4,8 C 11,2 C 1013 hpa 0,0 mm 11,9 km/h
12.04.2003 -0,4 C 14,7 C 1019 hpa 0,0 mm 8,6 km/h
13.04.2003 3,1 C 17,3 C 1024 hpa 0,0 mm 11,2 km/h
14.04.2003 7,4 C 19,0 C 1020 hpa 0,0 mm 12,6 km/h
15.04.2003 7,9 C 21,9 C 1023 hpa 0,0 mm 16,2 km/h
16.04.2003 8,9 C 20,7 C 1026 hpa 0,0 mm 15,5 km/h
17.04.2003 7,8 C 19,2 C 1030 hpa 0,0 mm 16,9 km/h
18.04.2003 7,2 C 16,7 C 1027 hpa 0,0 mm 20,2 km/h
19.04.2003 0,7 C 5,1 C 1018 hpa 0,0 mm 15,5 km/h
20.04.2003 -1,0 C 15,9 C 1014 hpa 0,0 mm 10,8 km/h
21.04.2003 8,8 C 22,1 C 1016 hpa 0,0 mm 14,8 km/h
22.04.2003 8,8 C 13,7 C 1018 hpa 0,0 mm 9,4 km/h
23.04.2003 3,5 C 17,8 C 1019 hpa 0,0 mm 9,4 km/h
24.04.2003 6,6 C 22,6 C 1019 hpa 0,0 mm 5,0 km/h
25.04.2003 10,2 C 23,7 C 1017 hpa 0,0 mm 11,2 km/h
26.04.2003 11,1 C 17,1 C 1008 hpa 16,0 mm 22,4 km/h
27.04.2003 6,8 C 15,5 C 1013 hpa 2,1 mm 18,6 km/h
28.04.2003 8,4 C 20,9 C 1009 hpa 0,7 mm 21,6 km/h
29.04.2003 11,3 C 18,6 C 1014 hpa 1,5 mm 20,2 km/h
30.04.2003 9,8 C 14,2 C 1012 hpa 10,2 mm 13,6 km/h



Kostenlose Homepage von Beepworld
 
Verantwortlich für den Inhalt dieser Seite ist ausschließlich der
Autor dieser Homepage, kontaktierbar über dieses Formular!